Kaleetan — WY2512 — position and weather

sailwx.info

Track history (hours):
 
Tides and Currents Weather Stations Pressure Air Temp Water Temp Dewpoint Dewpoint Depression Visibility Wind Speed Wind Dir Waves Ship Positions

Kaleetan

Owner: WASHINGTON, STATE OF; Department of Transportation, OLYMPIA, WA. More information available from US FCC via Universal Licensing System and Coast Guard Vessel Documentation Center.

Last reported at 2018-Jun-22 17:00 UTC. Time now 2018-Jun-22 17:07 UTC.
Position N 47°35' W 122°35'.

Length 116 m; draft 5.6 m.

Type: Passenger vessel. MMSI: 366772990.

Date/timePositionNaut miles runAvg speedWind from/ knotsBaromVisibWave heightAir tempDewpointWater temp
2018-Jun-22 17:00N 47°35' W 122°35'2 3.7
2018-Jun-22 16:30N 47°34' W 122°38'510.7
2018-Jun-22 16:00N 47°34' W 122°30'612.9
2018-Jun-22 15:30N 47°36' W 122°20'3 6.5
2018-Jun-22 15:00N 47°36' W 122°25'713.5
2018-Jun-22 14:30N 47°35' W 122°35'2 3.9
2018-Jun-22 13:59N 47°34' W 122°37'511.3
2018-Jun-22 13:30N 47°34' W 122°29'612.5
2018-Jun-22 13:00N 47°36' W 122°20'3 6.6
2018-Jun-22 12:31N 47°36' W 122°25'713.9
2018-Jun-22 11:59N 47°34' W 122°36'1 2.6
2018-Jun-22 11:30N 47°34' W 122°37'0 0.0
2018-Jun-22 11:00N 47°34' W 122°37'0 0.0
2018-Jun-22 10:30N 47°34' W 122°37'0 0.0
2018-Jun-22 10:00N 47°34' W 122°37'0 0.0
2018-Jun-22 09:30N 47°34' W 122°37'0 0.0
2018-Jun-22 09:00N 47°34' W 122°37'0 0.0
2018-Jun-22 08:30N 47°34' W 122°37'0 0.0
2018-Jun-22 08:00N 47°34' W 122°37'0 0.0
2018-Jun-22 07:29N 47°34' W 122°37'0 0.0
2018-Jun-22 07:00N 47°34' W 122°37'0 0.0
2018-Jun-22 06:30N 47°34' W 122°37'0 0.0
2018-Jun-22 06:00N 47°34' W 122°37'0 0.0
2018-Jun-22 05:30N 47°34' W 122°37'1 2.1
2018-Jun-22 04:59N 47°34' W 122°36'612.8
2018-Jun-22 04:30N 47°35' W 122°27'5 8.9
2018-Jun-22 04:00N 47°36' W 122°20'613.2
2018-Jun-22 03:31N 47°34' W 122°30'510.7
2018-Jun-22 03:00N 47°34' W 122°37'2 4.7
2018-Jun-22 02:31N 47°35' W 122°35'612.8
2018-Jun-22 02:00N 47°36' W 122°25'3 6.3
2018-Jun-22 01:30N 47°36' W 122°20'612.9
2018-Jun-22 01:00N 47°34' W 122°29'611.0
2018-Jun-22 00:30N 47°34' W 122°38'2 4.0
2018-Jun-22 00:00N 47°35' W 122°35'612.7
2018-Jun-21 23:30N 47°36' W 122°26'4 7.3
2018-Jun-21 23:00N 47°36' W 122°20'611.7
2018-Jun-21 22:30N 47°34' W 122°29'611.9
2018-Jun-21 22:00N 47°34' W 122°38'0 0.0
2018-Jun-21 21:27N 47°34' W 122°38'4 9.7
2018-Jun-21 21:01N 47°34' W 122°31'712.2
2018-Jun-21 20:24N 47°36' W 122°20'3 8.6
2018-Jun-21 20:01N 47°35' W 122°25'713.3
2018-Jun-21 19:30N 47°35' W 122°35'2 3.1
2018-Jun-21 18:59N 47°33' W 122°37'613.3
2018-Jun-21 18:31N 47°35' W 122°28'5 9.9
2018-Jun-21 18:00N 47°36' W 122°20'4 7.2
2018-Jun-21 17:30N 47°35' W 122°26'713.0
2018-Jun-21 17:00N 47°35' W 122°35'2 3.6
2018-Jun-21 16:30N 47°34' W 122°38'510.7
2018-Jun-21 16:00N 47°34' W 122°30'612.2
2018-Jun-21 15:28N 47°36' W 122°20'3 6.7
2018-Jun-21 15:00N 47°36' W 122°25'713.6
2018-Jun-21 14:31N 47°35' W 122°35'2 4.0
2018-Jun-21 13:59N 47°34' W 122°38'5 9.8
2018-Jun-21 13:30N 47°34' W 122°31'714.0
2018-Jun-21 13:00N 47°36' W 122°20'3 6.2
2018-Jun-21 12:30N 47°36' W 122°25'714.1
2018-Jun-21 12:00N 47°35' W 122°35'2 3.8
2018-Jun-21 11:30N 47°34' W 122°37'0 0.0
2018-Jun-21 10:59N 47°34' W 122°37'0 0.0
2018-Jun-21 10:30N 47°34' W 122°37'0 0.0
2018-Jun-21 10:00N 47°34' W 122°37'0 0.0
2018-Jun-21 09:30N 47°34' W 122°37'0 0.0
2018-Jun-21 09:00N 47°34' W 122°37'510.7
2018-Jun-21 08:31N 47°34' W 122°30'612.3
2018-Jun-21 07:59N 47°36' W 122°20'510.3
2018-Jun-21 07:31N 47°35' W 122°27'612.0
2018-Jun-21 07:00N 47°34' W 122°36'1 1.4
2018-Jun-21 06:30N 47°34' W 122°37'0 0.0
2018-Jun-21 06:00N 47°34' W 122°37'0 0.0
2018-Jun-21 05:30N 47°34' W 122°37'0 0.0
2018-Jun-21 05:00N 47°34' W 122°37'611.5
2018-Jun-21 04:30N 47°35' W 122°29'611.5
2018-Jun-21 03:59N 47°36' W 122°20'611.8
2018-Jun-21 03:30N 47°34' W 122°28'611.2
2018-Jun-21 03:00N 47°34' W 122°36'1 2.3
2018-Jun-21 02:30N 47°34' W 122°35'713.3
2018-Jun-21 02:00N 47°35' W 122°26'4 6.5
2018-Jun-21 01:28N 47°36' W 122°20'614.3
2018-Jun-21 01:01N 47°34' W 122°29'510.9
2018-Jun-21 00:30N 47°34' W 122°38'2 3.8
2018-Jun-21 00:00N 47°35' W 122°35'713.2
2018-Jun-20 23:30N 47°36' W 122°25'3 6.7
2018-Jun-20 23:00N 47°36' W 122°20'612.0
2018-Jun-20 22:30N 47°34' W 122°29'611.7
2018-Jun-20 22:00N 47°34' W 122°38'0 0.0
2018-Jun-20 21:30N 47°34' W 122°38'4 9.0
2018-Jun-20 21:00N 47°34' W 122°31'714.6
2018-Jun-20 20:30N 47°36' W 122°20'3 6.8
2018-Jun-20 20:00N 47°35' W 122°25'713.6
2018-Jun-20 19:30N 47°35' W 122°35'1 2.3
2018-Jun-20 19:00N 47°34' W 122°36'613.2
2018-Jun-20 18:31N 47°35' W 122°27'5 9.2
2018-Jun-20 18:00N 47°36' W 122°20'4 7.5
2018-Jun-20 17:30N 47°35' W 122°26'713.0
2018-Jun-20 17:00N 47°35' W 122°35'2 3.3
2018-Jun-20 16:30N 47°34' W 122°38'611.1
2018-Jun-20 16:00N 47°34' W 122°29'612.5
2018-Jun-20 15:30N 47°36' W 122°20'4 7.5
2018-Jun-20 15:00N 47°35' W 122°26'612.9
2018-Jun-20 14:30N 47°35' W 122°35'2 3.5
2018-Jun-20 14:00N 47°34' W 122°38'611.2
2018-Jun-20 13:30N 47°34' W 122°29'612.6
2018-Jun-20 13:01N 47°36' W 122°20'3 6.5
2018-Jun-20 12:30N 47°36' W 122°25'713.8
2018-Jun-20 12:00N 47°35' W 122°35'2 3.3
2018-Jun-20 11:30N 47°34' W 122°37'0 0.0
2018-Jun-20 11:00N 47°34' W 122°37'0 0.0
2018-Jun-20 10:30N 47°34' W 122°37'0 0.0
2018-Jun-20 10:00N 47°34' W 122°37'0 0.0
2018-Jun-20 09:30N 47°34' W 122°37'0 0.0
2018-Jun-20 09:00N 47°34' W 122°37'4 7.6
2018-Jun-20 08:30N 47°34' W 122°32'815.4
2018-Jun-20 08:00N 47°36' W 122°21'4 7.5
2018-Jun-20 07:30N 47°35' W 122°26'612.5
2018-Jun-20 07:00N 47°34' W 122°35'2 3.1
2018-Jun-20 06:30N 47°34' W 122°37'0 0.0
2018-Jun-20 06:01N 47°34' W 122°37'0 0.0
2018-Jun-20 05:30N 47°34' W 122°37'0 0.1
2018-Jun-20 05:00N 47°34' W 122°37'612.0
2018-Jun-20 04:30N 47°35' W 122°29'611.5
2018-Jun-20 04:00N 47°36' W 122°20'611.3
2018-Jun-20 03:30N 47°35' W 122°28'510.8
2018-Jun-20 03:00N 47°34' W 122°36'1 2.5
2018-Jun-20 02:31N 47°35' W 122°35'713.4
2018-Jun-20 02:00N 47°36' W 122°25'3 6.7
2018-Jun-20 01:30N 47°36' W 122°20'613.1
2018-Jun-20 01:01N 47°34' W 122°30'510.6
2018-Jun-20 00:30N 47°34' W 122°38'2 4.2
2018-Jun-20 00:00N 47°35' W 122°35'713.3
2018-Jun-19 23:30N 47°36' W 122°25'3 6.5
2018-Jun-19 23:00N 47°36' W 122°20'612.7
2018-Jun-19 22:31N 47°34' W 122°29'611.2
2018-Jun-19 22:00N 47°34' W 122°38'2 2.8
2018-Jun-19 21:26N 47°34' W 122°35'511.3
2018-Jun-19 21:00N 47°35' W 122°28'510.5
2018-Jun-19 20:30N 47°36' W 122°20'611.3
2018-Jun-19 20:00N 47°35' W 122°28'612.5
2018-Jun-19 19:30N 47°34' W 122°37'2 3.9
2018-Jun-19 19:00N 47°35' W 122°35'611.9
2018-Jun-19 18:30N 47°35' W 122°26'4 8.3
2018-Jun-19 18:00N 47°36' W 122°20'3 6.8
2018-Jun-19 17:30N 47°35' W 122°25'713.6
2018-Jun-19 17:00N 47°35' W 122°35'2 3.4
2018-Jun-19 16:30N 47°33' W 122°37'612.0
2018-Jun-19 16:01N 47°35' W 122°29'611.4
2018-Jun-19 15:30N 47°36' W 122°20'4 7.9
2018-Jun-19 15:01N 47°35' W 122°26'612.5
2018-Jun-19 14:30N 47°34' W 122°35'2 3.3
2018-Jun-19 14:00N 47°34' W 122°38'4 8.7
2018-Jun-19 13:31N 47°34' W 122°31'714.9
2018-Jun-19 13:01N 47°36' W 122°20'3 5.7
2018-Jun-19 12:30N 47°36' W 122°25'714.0
2018-Jun-19 12:00N 47°35' W 122°35'2 3.9
2018-Jun-19 11:30N 47°34' W 122°37'0 0.0
2018-Jun-19 11:00N 47°34' W 122°37'0 0.0
2018-Jun-19 10:30N 47°34' W 122°37'0 0.0
2018-Jun-19 10:01N 47°34' W 122°37'0 0.0
2018-Jun-19 09:31N 47°34' W 122°37'0 0.0
2018-Jun-19 08:59N 47°34' W 122°37'4 7.6
2018-Jun-19 08:31N 47°36' W 122°33'613.0
2018-Jun-19 08:01N 47°36' W 122°23'0 0.1
2018-Jun-19 07:30N 47°36' W 122°23'713.6
2018-Jun-19 07:01N 47°36' W 122°33'3 6.7
2018-Jun-19 06:31N 47°34' W 122°37'0 0.0
2018-Jun-19 06:01N 47°34' W 122°37'0 0.0
2018-Jun-19 05:30N 47°34' W 122°37'0 0.2
2018-Jun-19 05:00N 47°34' W 122°37'612.1
2018-Jun-19 04:31N 47°35' W 122°29'611.3
2018-Jun-19 04:00N 47°36' W 122°20'511.0
2018-Jun-19 03:31N 47°35' W 122°28'611.2
2018-Jun-19 03:00N 47°34' W 122°36'1 2.6
2018-Jun-19 02:30N 47°35' W 122°35'714.6
2018-Jun-19 02:01N 47°36' W 122°25'3 5.6
2018-Jun-19 01:30N 47°36' W 122°20'714.2
2018-Jun-19 01:01N 47°34' W 122°30'5 9.7
2018-Jun-19 00:30N 47°34' W 122°38'2 3.8
2018-Jun-19 00:00N 47°35' W 122°35'714.0
2018-Jun-18 23:30N 47°36' W 122°25'3 6.1
2018-Jun-18 23:00N 47°36' W 122°20'612.7
2018-Jun-18 22:31N 47°34' W 122°29'611.0
2018-Jun-18 22:00N 47°34' W 122°38'2 3.1
2018-Jun-18 21:28N 47°34' W 122°35'612.6
2018-Jun-18 21:00N 47°35' W 122°27'4 8.7
2018-Jun-18 20:30N 47°36' W 122°20'713.6
2018-Jun-18 20:00N 47°34' W 122°30'510.1
2018-Jun-18 19:30N 47°34' W 122°38'4 7.2
2018-Jun-18 19:01N 47°36' W 122°33'713.2
2018-Jun-18 18:30N 47°36' W 122°23'2 3.5
2018-Jun-18 17:57N 47°36' W 122°20'4 8.6
2018-Jun-18 17:30N 47°35' W 122°26'612.9
2018-Jun-18 17:00N 47°35' W 122°35'2 3.3
2018-Jun-18 16:31N 47°34' W 122°37'611.4
2018-Jun-18 16:01N 47°34' W 122°29'612.0
2018-Jun-18 15:30N 47°36' W 122°20'4 7.3
2018-Jun-18 15:01N 47°35' W 122°26'612.9
2018-Jun-18 14:31N 47°35' W 122°35'2 3.9
2018-Jun-18 14:00N 47°34' W 122°38'4 8.4
2018-Jun-18 13:31N 47°34' W 122°31'815.2
2018-Jun-18 13:00N 47°36' W 122°20'3 6.5
2018-Jun-18 12:30N 47°36' W 122°25'713.3
2018-Jun-18 12:01N 47°35' W 122°35'2 4.0
2018-Jun-18 11:30N 47°34' W 122°37'0 0.0
2018-Jun-18 11:00N 47°34' W 122°37'0 0.0
2018-Jun-18 10:30N 47°34' W 122°37'0 0.0
2018-Jun-18 10:00N 47°34' W 122°37'0 0.0
2018-Jun-18 09:30N 47°34' W 122°37'0 0.0
2018-Jun-18 09:00N 47°34' W 122°37'0 0.0
2018-Jun-18 08:30N 47°34' W 122°37'0 0.0
2018-Jun-18 08:00N 47°34' W 122°37'0 0.0
2018-Jun-18 07:30N 47°34' W 122°37'0 0.0
2018-Jun-18 07:00N 47°34' W 122°37'0 0.0
2018-Jun-18 06:30N 47°34' W 122°37'0 0.0
2018-Jun-18 06:00N 47°34' W 122°37'0 0.0
2018-Jun-18 05:30N 47°34' W 122°37'4 8.9
2018-Jun-18 05:00N 47°34' W 122°31'710.1
2018-Jun-18 04:17N 47°36' W 122°20'413.1
2018-Jun-18 04:00N 47°35' W 122°26'612.0
2018-Jun-18 03:30N 47°35' W 122°35'2 4.9
2018-Jun-18 03:00N 47°34' W 122°38'510.3
2018-Jun-18 02:31N 47°34' W 122°30'713.0
2018-Jun-18 01:59N 47°36' W 122°20'3 6.9
2018-Jun-18 01:31N 47°35' W 122°25'612.1
2018-Jun-18 01:00N 47°35' W 122°34'3 4.8
2018-Jun-18 00:27N 47°34' W 122°38'4 8.5
2018-Jun-18 00:01N 47°34' W 122°32'815.8
2018-Jun-17 23:30N 47°36' W 122°20'1 1.2
2018-Jun-17 23:00N 47°36' W 122°21'815.0
2018-Jun-17 22:30N 47°35' W 122°32'4 7.3
2018-Jun-17 22:00N 47°34' W 122°38'4 7.5
2018-Jun-17 21:30N 47°35' W 122°33'714.2
2018-Jun-17 21:01N 47°36' W 122°22'1 1.0
2018-Jun-17 20:30N 47°36' W 122°23'714.2
2018-Jun-17 20:01N 47°36' W 122°33'3 6.8
2018-Jun-17 19:31N 47°34' W 122°38'4 7.5
2018-Jun-17 19:00N 47°35' W 122°32'713.8
2018-Jun-17 18:30N 47°36' W 122°22'1 2.6
2018-Jun-17 18:01N 47°36' W 122°20'4 8.4
2018-Jun-17 17:31N 47°35' W 122°26'713.1
2018-Jun-17 17:01N 47°34' W 122°36'0 0.8
2018-Jun-17 16:30N 47°34' W 122°36'510.0
2018-Jun-17 16:00N 47°34' W 122°29'610.2
2018-Jun-17 15:25N 47°36' W 122°20'4 9.1
2018-Jun-17 15:00N 47°35' W 122°26'612.7
2018-Jun-17 14:31N 47°35' W 122°35'2 3.7
2018-Jun-17 14:00N 47°34' W 122°38'4 8.6
2018-Jun-17 13:30N 47°34' W 122°31'814.4
2018-Jun-17 12:59N 47°36' W 122°20'1 1.6
2018-Jun-17 12:31N 47°36' W 122°21'714.9
2018-Jun-17 12:00N 47°35' W 122°32'4 7.1
2018-Jun-17 11:30N 47°34' W 122°37'0 0.0
2018-Jun-17 11:00N 47°34' W 122°37'0 0.0
2018-Jun-17 10:30N 47°34' W 122°37'0 0.0
2018-Jun-17 10:00N 47°34' W 122°37'0 0.0
2018-Jun-17 09:30N 47°34' W 122°37'0 0.0
2018-Jun-17 09:00N 47°34' W 122°37'0 0.0
2018-Jun-17 08:30N 47°34' W 122°37'0 0.0
2018-Jun-17 07:59N 47°34' W 122°37'0 0.0
2018-Jun-17 07:30N 47°34' W 122°37'0 0.0
2018-Jun-17 07:00N 47°34' W 122°37'0 0.0
2018-Jun-17 06:30N 47°34' W 122°37'0 0.0
2018-Jun-17 06:00N 47°34' W 122°37'0 0.0
2018-Jun-17 05:29N 47°34' W 122°37'3 7.1
2018-Jun-17 05:00N 47°36' W 122°33'714.1
2018-Jun-17 04:30N 47°36' W 122°23'1 2.4
2018-Jun-17 04:00N 47°36' W 122°21'815.4
2018-Jun-17 03:30N 47°34' W 122°32'4 7.2
2018-Jun-17 03:00N 47°34' W 122°38'4 7.3
2018-Jun-17 02:31N 47°35' W 122°32'816.1
2018-Jun-17 02:00N 47°36' W 122°21'0 0.6
2018-Jun-17 01:31N 47°36' W 122°21'815.4
2018-Jun-17 01:00N 47°34' W 122°32'4 7.4
2018-Jun-17 00:30N 47°34' W 122°38'2 3.9
2018-Jun-17 00:00N 47°35' W 122°35'714.8
2018-Jun-16 23:30N 47°36' W 122°24'3 5.1
2018-Jun-16 23:00N 47°36' W 122°20'714.8
2018-Jun-16 22:30N 47°34' W 122°31'5 9.2
2018-Jun-16 22:00N 47°34' W 122°38'2 4.3
2018-Jun-16 21:30N 47°35' W 122°35'713.9
2018-Jun-16 21:00N 47°36' W 122°25'3 5.8
2018-Jun-16 20:31N 47°36' W 122°20'815.4
2018-Jun-16 20:01N 47°34' W 122°31'4 8.4
2018-Jun-16 19:30N 47°34' W 122°38'3 5.2
2018-Jun-16 19:00N 47°35' W 122°34'612.2
2018-Jun-16 18:31N 47°35' W 122°25'4 7.7
2018-Jun-16 18:00N 47°37' W 122°20'4 8.5
2018-Jun-16 17:30N 47°35' W 122°26'713.7
2018-Jun-16 17:00N 47°34' W 122°36'0 0.9
2018-Jun-16 16:30N 47°34' W 122°36'510.5
2018-Jun-16 16:01N 47°35' W 122°29'611.3
2018-Jun-16 15:30N 47°36' W 122°20'4 8.0
2018-Jun-16 15:01N 47°35' W 122°26'612.3
2018-Jun-16 14:30N 47°35' W 122°35'2 3.7
2018-Jun-16 14:00N 47°34' W 122°38'4 8.9
2018-Jun-16 13:31N 47°34' W 122°31'714.8
2018-Jun-16 13:00N 47°36' W 122°20'3 6.3
2018-Jun-16 12:31N 47°36' W 122°25'713.4
2018-Jun-16 12:00N 47°35' W 122°35'2 4.1
2018-Jun-16 11:30N 47°34' W 122°37'0 0.0
2018-Jun-16 11:01N 47°34' W 122°37'0 0.0
2018-Jun-16 10:31N 47°34' W 122°37'0 0.0
2018-Jun-16 10:01N 47°34' W 122°37'0 0.0
2018-Jun-16 09:30N 47°34' W 122°37'0 0.0
2018-Jun-16 09:01N 47°34' W 122°37'0 0.0
2018-Jun-16 08:30N 47°34' W 122°37'0 0.0
2018-Jun-16 07:58N 47°34' W 122°37'0 0.0
2018-Jun-16 07:30N 47°34' W 122°37'5 9.7
2018-Jun-16 07:01N 47°34' W 122°30'714.0
2018-Jun-16 06:30N 47°36' W 122°20'2 4.6
2018-Jun-16 06:00N 47°36' W 122°24'713.1
2018-Jun-16 05:30N 47°36' W 122°33'3 6.2
2018-Jun-16 05:00N 47°33' W 122°37'611.7
2018-Jun-16 04:30N 47°35' W 122°28'611.1
2018-Jun-16 04:00N 47°36' W 122°20'612.3
2018-Jun-16 03:31N 47°34' W 122°29'611.3
2018-Jun-16 03:01N 47°34' W 122°37'4 7.2
2018-Jun-16 02:31N 47°36' W 122°33'714.3
2018-Jun-16 02:01N 47°36' W 122°22'1 2.0
2018-Jun-16 01:31N 47°36' W 122°21'815.4
2018-Jun-16 01:01N 47°34' W 122°32'4 7.3
2018-Jun-16 00:30N 47°34' W 122°38'4 7.3
2018-Jun-16 00:00N 47°35' W 122°33'815.4
2018-Jun-15 23:30N 47°36' W 122°21'0 1.0
2018-Jun-15 23:00N 47°36' W 122°20'714.9
2018-Jun-15 22:30N 47°34' W 122°31'4 8.7
2018-Jun-15 22:00N 47°34' W 122°38'1 1.3
2018-Jun-15 21:30N 47°33' W 122°37'713.5
2018-Jun-15 21:00N 47°35' W 122°27'4 8.9
2018-Jun-15 20:30N 47°36' W 122°20'713.8
2018-Jun-15 20:00N 47°34' W 122°30'5 9.8
2018-Jun-15 19:30N 47°34' W 122°38'3 6.1
2018-Jun-15 19:00N 47°35' W 122°34'611.4
2018-Jun-15 18:31N 47°35' W 122°25'4 6.9
2018-Jun-15 18:00N 47°36' W 122°20'4 8.2
2018-Jun-15 17:30N 47°35' W 122°26'612.9
2018-Jun-15 17:01N 47°34' W 122°36'1 2.1
2018-Jun-15 16:30N 47°33' W 122°37'510.8
2018-Jun-15 16:01N 47°35' W 122°29'611.6
2018-Jun-15 15:30N 47°36' W 122°20'4 8.7
2018-Jun-15 15:00N 47°35' W 122°27'713.5
2018-Jun-15 14:30N 47°34' W 122°37'2 4.7
2018-Jun-15 14:00N 47°35' W 122°34'713.8
2018-Jun-15 13:30N 47°36' W 122°24'2 3.3
2018-Jun-15 13:00N 47°36' W 122°22'714.5
2018-Jun-15 12:30N 47°34' W 122°32'4 7.1
2018-Jun-15 12:00N 47°34' W 122°37'0 0.0
2018-Jun-15 11:30N 47°34' W 122°37'0 0.0
2018-Jun-15 11:00N 47°34' W 122°37'0 0.0
2018-Jun-15 10:30N 47°34' W 122°37'0 0.0
2018-Jun-15 10:00N 47°34' W 122°37'0 0.0
2018-Jun-15 09:30N 47°34' W 122°37'0 0.0
2018-Jun-15 09:00N 47°34' W 122°37'0 0.0
2018-Jun-15 08:30N 47°34' W 122°37'0 0.0
2018-Jun-15 08:00N 47°34' W 122°37'0 0.0
2018-Jun-15 07:30N 47°34' W 122°37'0 0.0
2018-Jun-15 07:00N 47°34' W 122°37'0 0.0
2018-Jun-15 06:30N 47°34' W 122°37'0 0.0
2018-Jun-15 06:00N 47°34' W 122°37'0 0.0
2018-Jun-15 05:30N 47°34' W 122°37'1 2.9
2018-Jun-15 05:00N 47°34' W 122°35'612.1
2018-Jun-15 04:31N 47°35' W 122°27'4 8.4
2018-Jun-15 04:00N 47°36' W 122°20'713.9
2018-Jun-15 03:30N 47°33' W 122°30'5 9.5
2018-Jun-15 03:00N 47°33' W 122°37'1 3.0
2018-Jun-15 02:31N 47°35' W 122°35'713.1
2018-Jun-15 02:01N 47°35' W 122°26'4 7.0
2018-Jun-15 01:30N 47°36' W 122°20'713.3
2018-Jun-15 01:01N 47°34' W 122°30'510.6
2018-Jun-15 00:30N 47°34' W 122°38'2 3.0
2018-Jun-15 00:00N 47°34' W 122°35'714.4
2018-Jun-14 23:30N 47°36' W 122°25'3 6.2
2018-Jun-14 23:00N 47°36' W 122°20'0 0.0
2018-Jun-14 22:30N 47°36' W 122°20'0 0.0
2018-Jun-14 22:00N 47°36' W 122°20'0 0.0
2018-Jun-14 21:30N 47°36' W 122°20'0 0.0
2018-Jun-14 21:00N 47°36' W 122°20'0 0.0
2018-Jun-14 20:30N 47°36' W 122°20'611.6
2018-Jun-14 20:01N 47°34' W 122°29'612.0
2018-Jun-14 19:30N 47°34' W 122°37'3 5.4
2018-Jun-14 19:00N 47°35' W 122°34'612.4
2018-Jun-14 18:30N 47°36' W 122°25'3 6.3
2018-Jun-14 18:00N 47°36' W 122°20'4 9.0
2018-Jun-14 17:30N 47°35' W 122°27'612.6
2018-Jun-14 17:00N 47°34' W 122°36'0 0.9
2018-Jun-14 16:30N 47°34' W 122°36'510.9
2018-Jun-14 16:00N 47°35' W 122°29'611.2
2018-Jun-14 15:30N 47°36' W 122°20'3 6.6
2018-Jun-14 15:00N 47°36' W 122°25'713.7
2018-Jun-14 14:30N 47°35' W 122°35'2 3.6
2018-Jun-14 14:01N 47°34' W 122°38'510.3
2018-Jun-14 13:31N 47°34' W 122°30'713.3
2018-Jun-14 13:00N 47°36' W 122°20'3 6.8
2018-Jun-14 12:30N 47°36' W 122°25'713.3
2018-Jun-14 12:00N 47°35' W 122°35'2 3.5
2018-Jun-14 11:30N 47°34' W 122°37'0 0.0
2018-Jun-14 10:59N 47°34' W 122°37'0 0.0
2018-Jun-14 10:30N 47°34' W 122°37'0 0.0
2018-Jun-14 10:00N 47°34' W 122°37'0 0.0
2018-Jun-14 09:30N 47°34' W 122°37'0 0.0
2018-Jun-14 09:00N 47°34' W 122°37'4 8.9
2018-Jun-14 08:30N 47°34' W 122°31'714.7
2018-Jun-14 08:00N 47°36' W 122°20'4 8.4
2018-Jun-14 07:30N 47°35' W 122°27'612.4
2018-Jun-14 07:00N 47°34' W 122°36'1 2.7
2018-Jun-14 06:30N 47°34' W 122°37'0 0.0
2018-Jun-14 06:00N 47°34' W 122°37'0 0.0
2018-Jun-14 05:30N 47°34' W 122°37'0 0.4
2018-Jun-14 05:00N 47°34' W 122°37'611.2
2018-Jun-14 04:31N 47°35' W 122°29'612.0
2018-Jun-14 04:00N 47°36' W 122°20'510.5
2018-Jun-14 03:30N 47°35' W 122°28'611.8
2018-Jun-14 03:00N 47°34' W 122°36'1 3.0
2018-Jun-14 02:30N 47°35' W 122°35'713.4
2018-Jun-14 02:01N 47°36' W 122°25'3 6.4
2018-Jun-14 01:30N 47°36' W 122°20'715.0
2018-Jun-14 01:00N 47°34' W 122°31'5 9.0
2018-Jun-14 00:30N 47°34' W 122°38'3 6.2
2018-Jun-14 00:00N 47°35' W 122°34'714.7
2018-Jun-13 23:30N 47°36' W 122°23'1 2.6
2018-Jun-13 23:01N 47°36' W 122°21'714.3
2018-Jun-13 22:31N 47°34' W 122°31'4 8.7
2018-Jun-13 22:00N 47°34' W 122°38'0 1.0
2018-Jun-13 21:31N 47°33' W 122°37'713.9
2018-Jun-13 21:01N 47°35' W 122°27'5 9.0
2018-Jun-13 20:30N 47°36' W 122°20'612.2
2018-Jun-13 20:01N 47°34' W 122°29'611.0
2018-Jun-13 19:30N 47°34' W 122°37'2 3.3
2018-Jun-13 19:00N 47°35' W 122°35'713.1
2018-Jun-13 18:30N 47°36' W 122°26'4 7.1
2018-Jun-13 18:00N 47°36' W 122°20'4 7.3
2018-Jun-13 17:30N 47°36' W 122°26'613.0
2018-Jun-13 17:00N 47°35' W 122°35'2 3.5
2018-Jun-13 16:30N 47°34' W 122°37'510.8
2018-Jun-13 16:01N 47°34' W 122°30'612.8
2018-Jun-13 15:30N 47°36' W 122°20'3 5.5
2018-Jun-13 15:00N 47°36' W 122°24'714.2
2018-Jun-13 14:30N 47°35' W 122°35'2 4.1
2018-Jun-13 14:00N 47°34' W 122°38'510.5
2018-Jun-13 13:31N 47°34' W 122°30'713.0
2018-Jun-13 13:00N 47°36' W 122°20'3 5.7
2018-Jun-13 12:30N 47°36' W 122°25'713.9
2018-Jun-13 12:01N 47°35' W 122°35'2 4.4
2018-Jun-13 11:30N 47°34' W 122°37'0 0.0
2018-Jun-13 11:00N 47°34' W 122°37'0 0.0
2018-Jun-13 10:30N 47°34' W 122°37'0 0.0
2018-Jun-13 10:00N 47°34' W 122°37'0 0.0
2018-Jun-13 09:30N 47°34' W 122°37'0 0.0
2018-Jun-13 09:00N 47°34' W 122°37'5 9.3
2018-Jun-13 08:30N 47°34' W 122°30'714.3
2018-Jun-13 08:00N 47°36' W 122°20'510.2
2018-Jun-13 07:31N 47°35' W 122°28'611.9
2018-Jun-13 07:00N 47°34' W 122°36'1 1.3
2018-Jun-13 06:31N 47°34' W 122°37'0 0.0
2018-Jun-13 06:00N 47°34' W 122°37'0 0.0
2018-Jun-13 05:31N 47°34' W 122°37'0 0.2
2018-Jun-13 05:01N 47°34' W 122°37'510.9
2018-Jun-13 04:31N 47°34' W 122°29'612.2
2018-Jun-13 04:00N 47°36' W 122°20'510.8
2018-Jun-13 03:30N 47°35' W 122°28'611.8
2018-Jun-13 03:00N 47°33' W 122°37'2 3.5
2018-Jun-13 02:30N 47°35' W 122°35'612.7
2018-Jun-13 02:01N 47°35' W 122°26'4 7.2
2018-Jun-13 01:30N 47°36' W 122°20'713.4
2018-Jun-13 01:01N 47°34' W 122°30'510.5
2018-Jun-13 00:30N 47°34' W 122°38'3 5.9
2018-Jun-13 00:00N 47°35' W 122°34'713.3
2018-Jun-12 23:30N 47°36' W 122°24'2 4.8
2018-Jun-12 23:00N 47°36' W 122°20'714.2
2018-Jun-12 22:30N 47°34' W 122°30'5 9.4
2018-Jun-12 22:00N 47°34' W 122°38'0 0.0
2018-Jun-12 21:31N 47°34' W 122°38'612.0
2018-Jun-12 21:00N 47°34' W 122°29'611.7
2018-Jun-12 20:30N 47°36' W 122°20'510.5
2018-Jun-12 20:00N 47°35' W 122°28'612.2
2018-Jun-12 19:30N 47°34' W 122°37'2 3.7
2018-Jun-12 19:00N 47°35' W 122°35'612.8
2018-Jun-12 18:30N 47°35' W 122°26'4 7.2
2018-Jun-12 18:01N 47°36' W 122°20'4 7.4
2018-Jun-12 17:30N 47°35' W 122°26'612.9
2018-Jun-12 17:00N 47°35' W 122°35'  
Track history (hours):
 
Tides and Currents Weather Stations Pressure Air Temp Water Temp Dewpoint Dewpoint Depression Visibility Wind Speed Wind Dir Waves Ship Positions

Kaleetan

Owner: WASHINGTON, STATE OF; Department of Transportation, OLYMPIA, WA. More information available from US FCC via Universal Licensing System and Coast Guard Vessel Documentation Center.

Last reported at 2018-Jun-22 17:00 UTC. Time now 2018-Jun-22 17:07 UTC.
Position N 47°35' W 122°35'.

Length 116 m; draft 5.6 m.

Type: Passenger vessel. MMSI: 366772990.

Date/timePositionNaut miles runAvg speedWind from/ knotsBaromVisibWave heightAir tempDewpointWater temp
2018-Jun-22 17:00N 47°35' W 122°35'2 3.7
2018-Jun-22 16:30N 47°34' W 122°38'510.7
2018-Jun-22 16:00N 47°34' W 122°30'612.9
2018-Jun-22 15:30N 47°36' W 122°20'3 6.5
2018-Jun-22 15:00N 47°36' W 122°25'713.5
2018-Jun-22 14:30N 47°35' W 122°35'2 3.9
2018-Jun-22 13:59N 47°34' W 122°37'511.3
2018-Jun-22 13:30N 47°34' W 122°29'612.5
2018-Jun-22 13:00N 47°36' W 122°20'3 6.6
2018-Jun-22 12:31N 47°36' W 122°25'713.9
2018-Jun-22 11:59N 47°34' W 122°36'1 2.6
2018-Jun-22 11:30N 47°34' W 122°37'0 0.0
2018-Jun-22 11:00N 47°34' W 122°37'0 0.0
2018-Jun-22 10:30N 47°34' W 122°37'0 0.0
2018-Jun-22 10:00N 47°34' W 122°37'0 0.0
2018-Jun-22 09:30N 47°34' W 122°37'0 0.0
2018-Jun-22 09:00N 47°34' W 122°37'0 0.0
2018-Jun-22 08:30N 47°34' W 122°37'0 0.0
2018-Jun-22 08:00N 47°34' W 122°37'0 0.0
2018-Jun-22 07:29N 47°34' W 122°37'0 0.0
2018-Jun-22 07:00N 47°34' W 122°37'0 0.0
2018-Jun-22 06:30N 47°34' W 122°37'0 0.0
2018-Jun-22 06:00N 47°34' W 122°37'0 0.0
2018-Jun-22 05:30N 47°34' W 122°37'1 2.1
2018-Jun-22 04:59N 47°34' W 122°36'612.8
2018-Jun-22 04:30N 47°35' W 122°27'5 8.9
2018-Jun-22 04:00N 47°36' W 122°20'613.2
2018-Jun-22 03:31N 47°34' W 122°30'510.7
2018-Jun-22 03:00N 47°34' W 122°37'2 4.7
2018-Jun-22 02:31N 47°35' W 122°35'612.8
2018-Jun-22 02:00N 47°36' W 122°25'3 6.3
2018-Jun-22 01:30N 47°36' W 122°20'612.9
2018-Jun-22 01:00N 47°34' W 122°29'611.0
2018-Jun-22 00:30N 47°34' W 122°38'2 4.0
2018-Jun-22 00:00N 47°35' W 122°35'612.7
2018-Jun-21 23:30N 47°36' W 122°26'4 7.3
2018-Jun-21 23:00N 47°36' W 122°20'611.7
2018-Jun-21 22:30N 47°34' W 122°29'611.9
2018-Jun-21 22:00N 47°34' W 122°38'0 0.0
2018-Jun-21 21:27N 47°34' W 122°38'4 9.7
2018-Jun-21 21:01N 47°34' W 122°31'712.2
2018-Jun-21 20:24N 47°36' W 122°20'3 8.6
2018-Jun-21 20:01N 47°35' W 122°25'713.3
2018-Jun-21 19:30N 47°35' W 122°35'2 3.1
2018-Jun-21 18:59N 47°33' W 122°37'613.3
2018-Jun-21 18:31N 47°35' W 122°28'5 9.9
2018-Jun-21 18:00N 47°36' W 122°20'4 7.2
2018-Jun-21 17:30N 47°35' W 122°26'713.0
2018-Jun-21 17:00N 47°35' W 122°35'2 3.6
2018-Jun-21 16:30N 47°34' W 122°38'510.7
2018-Jun-21 16:00N 47°34' W 122°30'612.2
2018-Jun-21 15:28N 47°36' W 122°20'3 6.7
2018-Jun-21 15:00N 47°36' W 122°25'713.6
2018-Jun-21 14:31N 47°35' W 122°35'2 4.0
2018-Jun-21 13:59N 47°34' W 122°38'5 9.8
2018-Jun-21 13:30N 47°34' W 122°31'714.0
2018-Jun-21 13:00N 47°36' W 122°20'3 6.2
2018-Jun-21 12:30N 47°36' W 122°25'714.1
2018-Jun-21 12:00N 47°35' W 122°35'2 3.8
2018-Jun-21 11:30N 47°34' W 122°37'0 0.0
2018-Jun-21 10:59N 47°34' W 122°37'0 0.0
2018-Jun-21 10:30N 47°34' W 122°37'0 0.0
2018-Jun-21 10:00N 47°34' W 122°37'0 0.0
2018-Jun-21 09:30N 47°34' W 122°37'0 0.0
2018-Jun-21 09:00N 47°34' W 122°37'510.7
2018-Jun-21 08:31N 47°34' W 122°30'612.3
2018-Jun-21 07:59N 47°36' W 122°20'510.3
2018-Jun-21 07:31N 47°35' W 122°27'612.0
2018-Jun-21 07:00N 47°34' W 122°36'1 1.4
2018-Jun-21 06:30N 47°34' W 122°37'0 0.0
2018-Jun-21 06:00N 47°34' W 122°37'0 0.0
2018-Jun-21 05:30N 47°34' W 122°37'0 0.0
2018-Jun-21 05:00N 47°34' W 122°37'611.5
2018-Jun-21 04:30N 47°35' W 122°29'611.5
2018-Jun-21 03:59N 47°36' W 122°20'611.8
2018-Jun-21 03:30N 47°34' W 122°28'611.2
2018-Jun-21 03:00N 47°34' W 122°36'1 2.3
2018-Jun-21 02:30N 47°34' W 122°35'713.3
2018-Jun-21 02:00N 47°35' W 122°26'4 6.5
2018-Jun-21 01:28N 47°36' W 122°20'614.3
2018-Jun-21 01:01N 47°34' W 122°29'510.9
2018-Jun-21 00:30N 47°34' W 122°38'2 3.8
2018-Jun-21 00:00N 47°35' W 122°35'713.2
2018-Jun-20 23:30N 47°36' W 122°25'3 6.7
2018-Jun-20 23:00N 47°36' W 122°20'612.0
2018-Jun-20 22:30N 47°34' W 122°29'611.7
2018-Jun-20 22:00N 47°34' W 122°38'0 0.0
2018-Jun-20 21:30N 47°34' W 122°38'4 9.0
2018-Jun-20 21:00N 47°34' W 122°31'714.6
2018-Jun-20 20:30N 47°36' W 122°20'3 6.8
2018-Jun-20 20:00N 47°35' W 122°25'713.6
2018-Jun-20 19:30N 47°35' W 122°35'1 2.3
2018-Jun-20 19:00N 47°34' W 122°36'613.2
2018-Jun-20 18:31N 47°35' W 122°27'5 9.2
2018-Jun-20 18:00N 47°36' W 122°20'4 7.5
2018-Jun-20 17:30N 47°35' W 122°26'713.0
2018-Jun-20 17:00N 47°35' W 122°35'2 3.3
2018-Jun-20 16:30N 47°34' W 122°38'611.1
2018-Jun-20 16:00N 47°34' W 122°29'612.5
2018-Jun-20 15:30N 47°36' W 122°20'4 7.5
2018-Jun-20 15:00N 47°35' W 122°26'612.9
2018-Jun-20 14:30N 47°35' W 122°35'2 3.5
2018-Jun-20 14:00N 47°34' W 122°38'611.2
2018-Jun-20 13:30N 47°34' W 122°29'612.6
2018-Jun-20 13:01N 47°36' W 122°20'3 6.5
2018-Jun-20 12:30N 47°36' W 122°25'713.8
2018-Jun-20 12:00N 47°35' W 122°35'2 3.3
2018-Jun-20 11:30N 47°34' W 122°37'0 0.0
2018-Jun-20 11:00N 47°34' W 122°37'0 0.0
2018-Jun-20 10:30N 47°34' W 122°37'0 0.0
2018-Jun-20 10:00N 47°34' W 122°37'0 0.0
2018-Jun-20 09:30N 47°34' W 122°37'0 0.0
2018-Jun-20 09:00N 47°34' W 122°37'4 7.6
2018-Jun-20 08:30N 47°34' W 122°32'815.4
2018-Jun-20 08:00N 47°36' W 122°21'4 7.5
2018-Jun-20 07:30N 47°35' W 122°26'612.5
2018-Jun-20 07:00N 47°34' W 122°35'2 3.1
2018-Jun-20 06:30N 47°34' W 122°37'0 0.0
2018-Jun-20 06:01N 47°34' W 122°37'0 0.0
2018-Jun-20 05:30N 47°34' W 122°37'0 0.1
2018-Jun-20 05:00N 47°34' W 122°37'612.0
2018-Jun-20 04:30N 47°35' W 122°29'611.5
2018-Jun-20 04:00N 47°36' W 122°20'611.3
2018-Jun-20 03:30N 47°35' W 122°28'510.8
2018-Jun-20 03:00N 47°34' W 122°36'1 2.5
2018-Jun-20 02:31N 47°35' W 122°35'713.4
2018-Jun-20 02:00N 47°36' W 122°25'3 6.7
2018-Jun-20 01:30N 47°36' W 122°20'613.1
2018-Jun-20 01:01N 47°34' W 122°30'510.6
2018-Jun-20 00:30N 47°34' W 122°38'2 4.2
2018-Jun-20 00:00N 47°35' W 122°35'713.3
2018-Jun-19 23:30N 47°36' W 122°25'3 6.5
2018-Jun-19 23:00N 47°36' W 122°20'612.7
2018-Jun-19 22:31N 47°34' W 122°29'611.2
2018-Jun-19 22:00N 47°34' W 122°38'2 2.8
2018-Jun-19 21:26N 47°34' W 122°35'511.3
2018-Jun-19 21:00N 47°35' W 122°28'510.5
2018-Jun-19 20:30N 47°36' W 122°20'611.3
2018-Jun-19 20:00N 47°35' W 122°28'612.5
2018-Jun-19 19:30N 47°34' W 122°37'2 3.9
2018-Jun-19 19:00N 47°35' W 122°35'611.9
2018-Jun-19 18:30N 47°35' W 122°26'4 8.3
2018-Jun-19 18:00N 47°36' W 122°20'3 6.8
2018-Jun-19 17:30N 47°35' W 122°25'713.6
2018-Jun-19 17:00N 47°35' W 122°35'2 3.4
2018-Jun-19 16:30N 47°33' W 122°37'612.0
2018-Jun-19 16:01N 47°35' W 122°29'611.4
2018-Jun-19 15:30N 47°36' W 122°20'4 7.9
2018-Jun-19 15:01N 47°35' W 122°26'612.5
2018-Jun-19 14:30N 47°34' W 122°35'2 3.3
2018-Jun-19 14:00N 47°34' W 122°38'4 8.7
2018-Jun-19 13:31N 47°34' W 122°31'714.9
2018-Jun-19 13:01N 47°36' W 122°20'3 5.7
2018-Jun-19 12:30N 47°36' W 122°25'714.0
2018-Jun-19 12:00N 47°35' W 122°35'2 3.9
2018-Jun-19 11:30N 47°34' W 122°37'0 0.0
2018-Jun-19 11:00N 47°34' W 122°37'0 0.0
2018-Jun-19 10:30N 47°34' W 122°37'0 0.0
2018-Jun-19 10:01N 47°34' W 122°37'0 0.0
2018-Jun-19 09:31N 47°34' W 122°37'0 0.0
2018-Jun-19 08:59N 47°34' W 122°37'4 7.6
2018-Jun-19 08:31N 47°36' W 122°33'613.0
2018-Jun-19 08:01N 47°36' W 122°23'0 0.1
2018-Jun-19 07:30N 47°36' W 122°23'713.6
2018-Jun-19 07:01N 47°36' W 122°33'3 6.7
2018-Jun-19 06:31N 47°34' W 122°37'0 0.0
2018-Jun-19 06:01N 47°34' W 122°37'0 0.0
2018-Jun-19 05:30N 47°34' W 122°37'0 0.2
2018-Jun-19 05:00N 47°34' W 122°37'612.1
2018-Jun-19 04:31N 47°35' W 122°29'611.3
2018-Jun-19 04:00N 47°36' W 122°20'511.0
2018-Jun-19 03:31N 47°35' W 122°28'611.2
2018-Jun-19 03:00N 47°34' W 122°36'1 2.6
2018-Jun-19 02:30N 47°35' W 122°35'714.6
2018-Jun-19 02:01N 47°36' W 122°25'3 5.6
2018-Jun-19 01:30N 47°36' W 122°20'714.2
2018-Jun-19 01:01N 47°34' W 122°30'5 9.7
2018-Jun-19 00:30N 47°34' W 122°38'2 3.8
2018-Jun-19 00:00N 47°35' W 122°35'714.0
2018-Jun-18 23:30N 47°36' W 122°25'3 6.1
2018-Jun-18 23:00N 47°36' W 122°20'612.7
2018-Jun-18 22:31N 47°34' W 122°29'611.0
2018-Jun-18 22:00N 47°34' W 122°38'2 3.1
2018-Jun-18 21:28N 47°34' W 122°35'612.6
2018-Jun-18 21:00N 47°35' W 122°27'4 8.7
2018-Jun-18 20:30N 47°36' W 122°20'713.6
2018-Jun-18 20:00N 47°34' W 122°30'510.1
2018-Jun-18 19:30N 47°34' W 122°38'4 7.2
2018-Jun-18 19:01N 47°36' W 122°33'713.2
2018-Jun-18 18:30N 47°36' W 122°23'2 3.5
2018-Jun-18 17:57N 47°36' W 122°20'4 8.6
2018-Jun-18 17:30N 47°35' W 122°26'612.9
2018-Jun-18 17:00N 47°35' W 122°35'2 3.3
2018-Jun-18 16:31N 47°34' W 122°37'611.4
2018-Jun-18 16:01N 47°34' W 122°29'612.0
2018-Jun-18 15:30N 47°36' W 122°20'4 7.3
2018-Jun-18 15:01N 47°35' W 122°26'612.9
2018-Jun-18 14:31N 47°35' W 122°35'2 3.9
2018-Jun-18 14:00N 47°34' W 122°38'4 8.4
2018-Jun-18 13:31N 47°34' W 122°31'815.2
2018-Jun-18 13:00N 47°36' W 122°20'3 6.5
2018-Jun-18 12:30N 47°36' W 122°25'713.3
2018-Jun-18 12:01N 47°35' W 122°35'2 4.0
2018-Jun-18 11:30N 47°34' W 122°37'0 0.0
2018-Jun-18 11:00N 47°34' W 122°37'0 0.0
2018-Jun-18 10:30N 47°34' W 122°37'0 0.0
2018-Jun-18 10:00N 47°34' W 122°37'0 0.0
2018-Jun-18 09:30N 47°34' W 122°37'0 0.0
2018-Jun-18 09:00N 47°34' W 122°37'0 0.0
2018-Jun-18 08:30N 47°34' W 122°37'0 0.0
2018-Jun-18 08:00N 47°34' W 122°37'0 0.0
2018-Jun-18 07:30N 47°34' W 122°37'0 0.0
2018-Jun-18 07:00N 47°34' W 122°37'0 0.0
2018-Jun-18 06:30N 47°34' W 122°37'0 0.0
2018-Jun-18 06:00N 47°34' W 122°37'0 0.0
2018-Jun-18 05:30N 47°34' W 122°37'4 8.9
2018-Jun-18 05:00N 47°34' W 122°31'710.1
2018-Jun-18 04:17N 47°36' W 122°20'413.1
2018-Jun-18 04:00N 47°35' W 122°26'612.0
2018-Jun-18 03:30N 47°35' W 122°35'2 4.9
2018-Jun-18 03:00N 47°34' W 122°38'510.3
2018-Jun-18 02:31N 47°34' W 122°30'713.0
2018-Jun-18 01:59N 47°36' W 122°20'3 6.9
2018-Jun-18 01:31N 47°35' W 122°25'612.1
2018-Jun-18 01:00N 47°35' W 122°34'3 4.8
2018-Jun-18 00:27N 47°34' W 122°38'4 8.5
2018-Jun-18 00:01N 47°34' W 122°32'815.8
2018-Jun-17 23:30N 47°36' W 122°20'1 1.2
2018-Jun-17 23:00N 47°36' W 122°21'815.0
2018-Jun-17 22:30N 47°35' W 122°32'4 7.3
2018-Jun-17 22:00N 47°34' W 122°38'4 7.5
2018-Jun-17 21:30N 47°35' W 122°33'714.2
2018-Jun-17 21:01N 47°36' W 122°22'1 1.0
2018-Jun-17 20:30N 47°36' W 122°23'714.2
2018-Jun-17 20:01N 47°36' W 122°33'3 6.8
2018-Jun-17 19:31N 47°34' W 122°38'4 7.5
2018-Jun-17 19:00N 47°35' W 122°32'713.8
2018-Jun-17 18:30N 47°36' W 122°22'1 2.6
2018-Jun-17 18:01N 47°36' W 122°20'4 8.4
2018-Jun-17 17:31N 47°35' W 122°26'713.1
2018-Jun-17 17:01N 47°34' W 122°36'0 0.8
2018-Jun-17 16:30N 47°34' W 122°36'510.0
2018-Jun-17 16:00N 47°34' W 122°29'610.2
2018-Jun-17 15:25N 47°36' W 122°20'4 9.1
2018-Jun-17 15:00N 47°35' W 122°26'612.7
2018-Jun-17 14:31N 47°35' W 122°35'2 3.7
2018-Jun-17 14:00N 47°34' W 122°38'4 8.6
2018-Jun-17 13:30N 47°34' W 122°31'814.4
2018-Jun-17 12:59N 47°36' W 122°20'1 1.6
2018-Jun-17 12:31N 47°36' W 122°21'714.9
2018-Jun-17 12:00N 47°35' W 122°32'4 7.1
2018-Jun-17 11:30N 47°34' W 122°37'0 0.0
2018-Jun-17 11:00N 47°34' W 122°37'0 0.0
2018-Jun-17 10:30N 47°34' W 122°37'0 0.0
2018-Jun-17 10:00N 47°34' W 122°37'0 0.0
2018-Jun-17 09:30N 47°34' W 122°37'0 0.0
2018-Jun-17 09:00N 47°34' W 122°37'0 0.0
2018-Jun-17 08:30N 47°34' W 122°37'0 0.0
2018-Jun-17 07:59N 47°34' W 122°37'0 0.0
2018-Jun-17 07:30N 47°34' W 122°37'0 0.0
2018-Jun-17 07:00N 47°34' W 122°37'0 0.0
2018-Jun-17 06:30N 47°34' W 122°37'0 0.0
2018-Jun-17 06:00N 47°34' W 122°37'0 0.0
2018-Jun-17 05:29N 47°34' W 122°37'3 7.1
2018-Jun-17 05:00N 47°36' W 122°33'714.1
2018-Jun-17 04:30N 47°36' W 122°23'1 2.4
2018-Jun-17 04:00N 47°36' W 122°21'815.4
2018-Jun-17 03:30N 47°34' W 122°32'4 7.2
2018-Jun-17 03:00N 47°34' W 122°38'4 7.3
2018-Jun-17 02:31N 47°35' W 122°32'816.1
2018-Jun-17 02:00N 47°36' W 122°21'0 0.6
2018-Jun-17 01:31N 47°36' W 122°21'815.4
2018-Jun-17 01:00N 47°34' W 122°32'4 7.4
2018-Jun-17 00:30N 47°34' W 122°38'2 3.9
2018-Jun-17 00:00N 47°35' W 122°35'714.8
2018-Jun-16 23:30N 47°36' W 122°24'3 5.1
2018-Jun-16 23:00N 47°36' W 122°20'714.8
2018-Jun-16 22:30N 47°34' W 122°31'5 9.2
2018-Jun-16 22:00N 47°34' W 122°38'2 4.3
2018-Jun-16 21:30N 47°35' W 122°35'713.9
2018-Jun-16 21:00N 47°36' W 122°25'3 5.8
2018-Jun-16 20:31N 47°36' W 122°20'815.4
2018-Jun-16 20:01N 47°34' W 122°31'4 8.4
2018-Jun-16 19:30N 47°34' W 122°38'3 5.2
2018-Jun-16 19:00N 47°35' W 122°34'612.2
2018-Jun-16 18:31N 47°35' W 122°25'4 7.7
2018-Jun-16 18:00N 47°37' W 122°20'4 8.5
2018-Jun-16 17:30N 47°35' W 122°26'713.7
2018-Jun-16 17:00N 47°34' W 122°36'0 0.9
2018-Jun-16 16:30N 47°34' W 122°36'510.5
2018-Jun-16 16:01N 47°35' W 122°29'611.3
2018-Jun-16 15:30N 47°36' W 122°20'4 8.0
2018-Jun-16 15:01N 47°35' W 122°26'612.3
2018-Jun-16 14:30N 47°35' W 122°35'2 3.7
2018-Jun-16 14:00N 47°34' W 122°38'4 8.9
2018-Jun-16 13:31N 47°34' W 122°31'714.8
2018-Jun-16 13:00N 47°36' W 122°20'3 6.3
2018-Jun-16 12:31N 47°36' W 122°25'713.4
2018-Jun-16 12:00N 47°35' W 122°35'2 4.1
2018-Jun-16 11:30N 47°34' W 122°37'0 0.0
2018-Jun-16 11:01N 47°34' W 122°37'0 0.0
2018-Jun-16 10:31N 47°34' W 122°37'0 0.0
2018-Jun-16 10:01N 47°34' W 122°37'0 0.0
2018-Jun-16 09:30N 47°34' W 122°37'0 0.0
2018-Jun-16 09:01N 47°34' W 122°37'0 0.0
2018-Jun-16 08:30N 47°34' W 122°37'0 0.0
2018-Jun-16 07:58N 47°34' W 122°37'0 0.0
2018-Jun-16 07:30N 47°34' W 122°37'5 9.7
2018-Jun-16 07:01N 47°34' W 122°30'714.0
2018-Jun-16 06:30N 47°36' W 122°20'2 4.6
2018-Jun-16 06:00N 47°36' W 122°24'713.1
2018-Jun-16 05:30N 47°36' W 122°33'3 6.2
2018-Jun-16 05:00N 47°33' W 122°37'611.7
2018-Jun-16 04:30N 47°35' W 122°28'611.1
2018-Jun-16 04:00N 47°36' W 122°20'612.3
2018-Jun-16 03:31N 47°34' W 122°29'611.3
2018-Jun-16 03:01N 47°34' W 122°37'4 7.2
2018-Jun-16 02:31N 47°36' W 122°33'714.3
2018-Jun-16 02:01N 47°36' W 122°22'1 2.0
2018-Jun-16 01:31N 47°36' W 122°21'815.4
2018-Jun-16 01:01N 47°34' W 122°32'4 7.3
2018-Jun-16 00:30N 47°34' W 122°38'4 7.3
2018-Jun-16 00:00N 47°35' W 122°33'815.4
2018-Jun-15 23:30N 47°36' W 122°21'0 1.0
2018-Jun-15 23:00N 47°36' W 122°20'714.9
2018-Jun-15 22:30N 47°34' W 122°31'4 8.7
2018-Jun-15 22:00N 47°34' W 122°38'1 1.3
2018-Jun-15 21:30N 47°33' W 122°37'713.5
2018-Jun-15 21:00N 47°35' W 122°27'4 8.9
2018-Jun-15 20:30N 47°36' W 122°20'713.8
2018-Jun-15 20:00N 47°34' W 122°30'5 9.8
2018-Jun-15 19:30N 47°34' W 122°38'3 6.1
2018-Jun-15 19:00N 47°35' W 122°34'611.4
2018-Jun-15 18:31N 47°35' W 122°25'4 6.9
2018-Jun-15 18:00N 47°36' W 122°20'4 8.2
2018-Jun-15 17:30N 47°35' W 122°26'612.9
2018-Jun-15 17:01N 47°34' W 122°36'1 2.1
2018-Jun-15 16:30N 47°33' W 122°37'510.8
2018-Jun-15 16:01N 47°35' W 122°29'611.6
2018-Jun-15 15:30N 47°36' W 122°20'4 8.7
2018-Jun-15 15:00N 47°35' W 122°27'713.5
2018-Jun-15 14:30N 47°34' W 122°37'2 4.7
2018-Jun-15 14:00N 47°35' W 122°34'713.8
2018-Jun-15 13:30N 47°36' W 122°24'2 3.3
2018-Jun-15 13:00N 47°36' W 122°22'714.5
2018-Jun-15 12:30N 47°34' W 122°32'4 7.1
2018-Jun-15 12:00N 47°34' W 122°37'0 0.0
2018-Jun-15 11:30N 47°34' W 122°37'0 0.0
2018-Jun-15 11:00N 47°34' W 122°37'0 0.0
2018-Jun-15 10:30N 47°34' W 122°37'0 0.0
2018-Jun-15 10:00N 47°34' W 122°37'0 0.0
2018-Jun-15 09:30N 47°34' W 122°37'0 0.0
2018-Jun-15 09:00N 47°34' W 122°37'0 0.0
2018-Jun-15 08:30N 47°34' W 122°37'0 0.0
2018-Jun-15 08:00N 47°34' W 122°37'0 0.0
2018-Jun-15 07:30N 47°34' W 122°37'0 0.0
2018-Jun-15 07:00N 47°34' W 122°37'0 0.0
2018-Jun-15 06:30N 47°34' W 122°37'0 0.0
2018-Jun-15 06:00N 47°34' W 122°37'0 0.0
2018-Jun-15 05:30N 47°34' W 122°37'1 2.9
2018-Jun-15 05:00N 47°34' W 122°35'612.1
2018-Jun-15 04:31N 47°35' W 122°27'4 8.4
2018-Jun-15 04:00N 47°36' W 122°20'713.9
2018-Jun-15 03:30N 47°33' W 122°30'5 9.5
2018-Jun-15 03:00N 47°33' W 122°37'1 3.0
2018-Jun-15 02:31N 47°35' W 122°35'713.1
2018-Jun-15 02:01N 47°35' W 122°26'4 7.0
2018-Jun-15 01:30N 47°36' W 122°20'713.3
2018-Jun-15 01:01N 47°34' W 122°30'510.6
2018-Jun-15 00:30N 47°34' W 122°38'2 3.0
2018-Jun-15 00:00N 47°34' W 122°35'714.4
2018-Jun-14 23:30N 47°36' W 122°25'3 6.2
2018-Jun-14 23:00N 47°36' W 122°20'0 0.0
2018-Jun-14 22:30N 47°36' W 122°20'0 0.0
2018-Jun-14 22:00N 47°36' W 122°20'0 0.0
2018-Jun-14 21:30N 47°36' W 122°20'0 0.0
2018-Jun-14 21:00N 47°36' W 122°20'0 0.0
2018-Jun-14 20:30N 47°36' W 122°20'611.6
2018-Jun-14 20:01N 47°34' W 122°29'612.0
2018-Jun-14 19:30N 47°34' W 122°37'3 5.4
2018-Jun-14 19:00N 47°35' W 122°34'612.4
2018-Jun-14 18:30N 47°36' W 122°25'3 6.3
2018-Jun-14 18:00N 47°36' W 122°20'4 9.0
2018-Jun-14 17:30N 47°35' W 122°27'612.6
2018-Jun-14 17:00N 47°34' W 122°36'0 0.9
2018-Jun-14 16:30N 47°34' W 122°36'510.9
2018-Jun-14 16:00N 47°35' W 122°29'611.2
2018-Jun-14 15:30N 47°36' W 122°20'3 6.6
2018-Jun-14 15:00N 47°36' W 122°25'713.7
2018-Jun-14 14:30N 47°35' W 122°35'2 3.6
2018-Jun-14 14:01N 47°34' W 122°38'510.3
2018-Jun-14 13:31N 47°34' W 122°30'713.3
2018-Jun-14 13:00N 47°36' W 122°20'3 6.8
2018-Jun-14 12:30N 47°36' W 122°25'713.3
2018-Jun-14 12:00N 47°35' W 122°35'2 3.5
2018-Jun-14 11:30N 47°34' W 122°37'0 0.0
2018-Jun-14 10:59N 47°34' W 122°37'0 0.0
2018-Jun-14 10:30N 47°34' W 122°37'0 0.0
2018-Jun-14 10:00N 47°34' W 122°37'0 0.0
2018-Jun-14 09:30N 47°34' W 122°37'0 0.0
2018-Jun-14 09:00N 47°34' W 122°37'4 8.9
2018-Jun-14 08:30N 47°34' W 122°31'714.7
2018-Jun-14 08:00N 47°36' W 122°20'4 8.4
2018-Jun-14 07:30N 47°35' W 122°27'612.4
2018-Jun-14 07:00N 47°34' W 122°36'1 2.7
2018-Jun-14 06:30N 47°34' W 122°37'0 0.0
2018-Jun-14 06:00N 47°34' W 122°37'0 0.0
2018-Jun-14 05:30N 47°34' W 122°37'0 0.4
2018-Jun-14 05:00N 47°34' W 122°37'611.2
2018-Jun-14 04:31N 47°35' W 122°29'612.0
2018-Jun-14 04:00N 47°36' W 122°20'510.5
2018-Jun-14 03:30N 47°35' W 122°28'611.8
2018-Jun-14 03:00N 47°34' W 122°36'1 3.0
2018-Jun-14 02:30N 47°35' W 122°35'713.4
2018-Jun-14 02:01N 47°36' W 122°25'3 6.4
2018-Jun-14 01:30N 47°36' W 122°20'715.0
2018-Jun-14 01:00N 47°34' W 122°31'5 9.0
2018-Jun-14 00:30N 47°34' W 122°38'3 6.2
2018-Jun-14 00:00N 47°35' W 122°34'714.7
2018-Jun-13 23:30N 47°36' W 122°23'1 2.6
2018-Jun-13 23:01N 47°36' W 122°21'714.3
2018-Jun-13 22:31N 47°34' W 122°31'4 8.7
2018-Jun-13 22:00N 47°34' W 122°38'0 1.0
2018-Jun-13 21:31N 47°33' W 122°37'713.9
2018-Jun-13 21:01N 47°35' W 122°27'5 9.0
2018-Jun-13 20:30N 47°36' W 122°20'612.2
2018-Jun-13 20:01N 47°34' W 122°29'611.0
2018-Jun-13 19:30N 47°34' W 122°37'2 3.3
2018-Jun-13 19:00N 47°35' W 122°35'713.1
2018-Jun-13 18:30N 47°36' W 122°26'4 7.1
2018-Jun-13 18:00N 47°36' W 122°20'4 7.3
2018-Jun-13 17:30N 47°36' W 122°26'613.0
2018-Jun-13 17:00N 47°35' W 122°35'2 3.5
2018-Jun-13 16:30N 47°34' W 122°37'510.8
2018-Jun-13 16:01N 47°34' W 122°30'612.8
2018-Jun-13 15:30N 47°36' W 122°20'3 5.5
2018-Jun-13 15:00N 47°36' W 122°24'714.2
2018-Jun-13 14:30N 47°35' W 122°35'2 4.1
2018-Jun-13 14:00N 47°34' W 122°38'510.5
2018-Jun-13 13:31N 47°34' W 122°30'713.0
2018-Jun-13 13:00N 47°36' W 122°20'3 5.7
2018-Jun-13 12:30N 47°36' W 122°25'713.9
2018-Jun-13 12:01N 47°35' W 122°35'2 4.4
2018-Jun-13 11:30N 47°34' W 122°37'0 0.0
2018-Jun-13 11:00N 47°34' W 122°37'0 0.0
2018-Jun-13 10:30N 47°34' W 122°37'0 0.0
2018-Jun-13 10:00N 47°34' W 122°37'0 0.0
2018-Jun-13 09:30N 47°34' W 122°37'0 0.0
2018-Jun-13 09:00N 47°34' W 122°37'5 9.3
2018-Jun-13 08:30N 47°34' W 122°30'714.3
2018-Jun-13 08:00N 47°36' W 122°20'510.2
2018-Jun-13 07:31N 47°35' W 122°28'611.9
2018-Jun-13 07:00N 47°34' W 122°36'1 1.3
2018-Jun-13 06:31N 47°34' W 122°37'0 0.0
2018-Jun-13 06:00N 47°34' W 122°37'0 0.0
2018-Jun-13 05:31N 47°34' W 122°37'0 0.2
2018-Jun-13 05:01N 47°34' W 122°37'510.9
2018-Jun-13 04:31N 47°34' W 122°29'612.2
2018-Jun-13 04:00N 47°36' W 122°20'510.8
2018-Jun-13 03:30N 47°35' W 122°28'611.8
2018-Jun-13 03:00N 47°33' W 122°37'2 3.5
2018-Jun-13 02:30N 47°35' W 122°35'612.7
2018-Jun-13 02:01N 47°35' W 122°26'4 7.2
2018-Jun-13 01:30N 47°36' W 122°20'713.4
2018-Jun-13 01:01N 47°34' W 122°30'510.5
2018-Jun-13 00:30N 47°34' W 122°38'3 5.9
2018-Jun-13 00:00N 47°35' W 122°34'713.3
2018-Jun-12 23:30N 47°36' W 122°24'2 4.8
2018-Jun-12 23:00N 47°36' W 122°20'714.2
2018-Jun-12 22:30N 47°34' W 122°30'5 9.4
2018-Jun-12 22:00N 47°34' W 122°38'0 0.0
2018-Jun-12 21:31N 47°34' W 122°38'612.0
2018-Jun-12 21:00N 47°34' W 122°29'611.7
2018-Jun-12 20:30N 47°36' W 122°20'510.5
2018-Jun-12 20:00N 47°35' W 122°28'612.2
2018-Jun-12 19:30N 47°34' W 122°37'2 3.7
2018-Jun-12 19:00N 47°35' W 122°35'612.8
2018-Jun-12 18:30N 47°35' W 122°26'4 7.2
2018-Jun-12 18:01N 47°36' W 122°20'4 7.4
2018-Jun-12 17:30N 47°35' W 122°26'612.9
2018-Jun-12 17:00N 47°35' W 122°35'  

Dump ship's entire track history